Auroraville, Wisconsin
Current Conditions -  °F | °C
As of 5:13 AM on Friday 24 Oct 2014 (Local Time) from KY50 Reporting Station
Haze Haze  
Wind Chill: 46°   Ceiling: 300
Heat Index: 48°   Visibility: 4mi
Dew Point: 48°   Wind: 6mph
Humidity: 100%   Direction: 250°WSW
Pressure: 30.04"   Gusts: NA
Location:  43.9938°N, 88.9686°W
Report Text: KY50 241013Z AUTO 25005KT 4SM BR OVC003 09/09 A3004 RMK AO2 TSNO
Loading
Personal Weather Stations






























Interactive Weather Map
Tropical Storm Tracking
New forecast layout! Learn more

10-Day Weather Forecast

Advertisements
Track Severe Weather on mobile